Kalundborg, Denmark
Current Conditions -  °F | °C
As of 2:50 PM on Tuesday 27 Jan 2015 (Local Time) from EKOD Reporting Station
Clear Clear  
Wind Chill: 34°   Ceiling: Unl
Heat Index: 41°   Visibility: 6mi
Dew Point: 39°   Wind: 13mph
Humidity: 93%   Direction: 300°WNW
Pressure: 29.94"   Gusts: NA
Location:  55.68°N, 11.1°E
Report Text: EKOD 271350Z 30011KT CAVOK 05/04 Q1014
Loading
Personal Weather Stations






























Interactive Weather Map New forecast layout! Learn more

10-Day Weather Forecast

Advertisements
Track Severe Weather on mobile